KEBS/EBS METAR and TAF weather

Enter ICAO airport designator
Station Type Date Time Source
KEBS METAR 2022/11/30 09:55 UTC NOAA

KEBS 300955Z AUTO 28017G23KT 10SM CLR M09/M12 A3001 RMK AO2


Station Type Date Time Source
KEBS Decoded METAR 2022/11/30 09:55 UTC NOAA

Webster City, IA, United States (KEBS) 42-26N 093-52W
Nov 30, 2022 - 04:55 AM EST / 2022.11.30 0955 UTC
Wind: from the W (280 degrees) at 20 MPH (17 KT) gusting to 26 MPH (23 KT):0
Visibility: 10 mile(s):0
Sky conditions: clear
Temperature: 15 F (-9 C)
Windchill: -2 F (-19 C):1
Dew Point: 10 F (-12 C)
Relative Humidity: 78%
Pressure (altimeter): 30.01 in. Hg (1016 hPa)
ob: KEBS 300955Z AUTO 28017G23KT 10SM CLR M09/M12 A3001 RMK AO2
cycle: 10

Station Type Date Time Source
KEBS TAF UTC NOAA

Error!

Example: see airport list